createdAt,value
2019-03-21T00:00:19.479Z,12.46
2019-03-21T00:01:19.463Z,12.49
2019-03-21T00:02:19.437Z,12.5
2019-03-21T00:03:19.458Z,12.49
2019-03-21T00:04:19.428Z,12.46
2019-03-21T00:05:19.489Z,12.47
2019-03-21T00:06:19.403Z,12.45
2019-03-21T00:07:19.431Z,12.42
2019-03-21T00:08:19.415Z,12.49
2019-03-21T00:09:19.402Z,12.46
2019-03-21T00:10:19.365Z,12.49
2019-03-21T00:11:19.357Z,12.45
2019-03-21T00:12:19.376Z,12.45
2019-03-21T00:13:19.393Z,12.42
2019-03-21T00:14:19.328Z,12.46
2019-03-21T00:15:19.105Z,12.41
2019-03-21T00:16:19.316Z,12.42
2019-03-21T00:17:19.334Z,12.42
2019-03-21T00:18:19.291Z,12.47
2019-03-21T00:19:19.319Z,12.41
2019-03-21T00:20:19.281Z,12.41
2019-03-21T00:21:19.286Z,12.42
2019-03-21T00:22:19.259Z,12.38
2019-03-21T00:23:19.299Z,12.37
2019-03-21T00:24:19.264Z,12.39
2019-03-21T00:25:19.250Z,12.39
2019-03-21T00:26:19.217Z,12.38
2019-03-21T00:27:19.212Z,12.38
2019-03-21T00:28:19.231Z,12.38
2019-03-21T00:29:19.210Z,12.45
2019-03-21T00:30:19.225Z,12.49
2019-03-21T00:31:19.178Z,12.35
2019-03-21T00:32:19.193Z,12.37
2019-03-21T00:33:19.190Z,12.34
2019-03-21T00:34:19.180Z,12.41
2019-03-21T00:35:19.137Z,12.38
2019-03-21T00:36:19.160Z,12.31
2019-03-21T00:37:19.133Z,12.24
2019-03-21T00:38:19.147Z,12.29
2019-03-21T00:39:19.106Z,12.37
2019-03-21T00:40:19.121Z,12.24
2019-03-21T00:41:19.110Z,12.34
2019-03-21T00:42:19.080Z,12.37
2019-03-21T00:43:19.068Z,12.31
2019-03-21T00:44:23.313Z,12.28
2019-03-21T00:45:19.066Z,12.31
2019-03-21T00:46:19.072Z,12.23
2019-03-21T00:47:19.038Z,12.34
2019-03-21T00:48:19.050Z,12.23
2019-03-21T00:49:19.016Z,12.28
2019-03-21T00:50:19.035Z,12.21
2019-03-21T00:51:18.995Z,12.24
2019-03-21T00:52:19.017Z,12.39
2019-03-21T00:53:18.989Z,12.24
2019-03-21T00:54:18.996Z,12.24
2019-03-21T00:55:18.962Z,12.23
2019-03-21T00:56:18.958Z,12.24
2019-03-21T00:57:18.958Z,12.37
2019-03-21T00:58:18.971Z,12.35
2019-03-21T00:59:18.957Z,12.32
2019-03-21T01:00:18.944Z,12.24
2019-03-21T01:01:18.939Z,12.27
2019-03-21T01:02:18.929Z,12.21
2019-03-21T01:03:18.922Z,12.29
2019-03-21T01:04:18.917Z,12.32
2019-03-21T01:05:18.656Z,12.28
2019-03-21T01:06:18.899Z,12.32
2019-03-21T01:07:18.844Z,12.27
2019-03-21T01:08:18.870Z,12.27
2019-03-21T01:09:18.863Z,12.29
2019-03-21T01:10:18.852Z,12.27
2019-03-21T01:11:18.826Z,12.27
2019-03-21T01:12:18.806Z,12.24
2019-03-21T01:13:18.812Z,12.29
2019-03-21T01:14:29.163Z,12.24
2019-03-21T01:15:18.811Z,12.29
2019-03-21T01:16:18.773Z,12.31
2019-03-21T01:17:18.778Z,12.27
2019-03-21T01:18:18.764Z,12.28
2019-03-21T01:19:18.777Z,12.34
2019-03-21T01:20:18.738Z,12.34
2019-03-21T01:21:18.758Z,12.31
2019-03-21T01:22:18.721Z,12.23
2019-03-21T01:23:18.738Z,12.24
2019-03-21T01:24:18.698Z,12.31
2019-03-21T01:25:18.703Z,12.27
2019-03-21T01:26:18.679Z,12.27
2019-03-21T01:27:18.699Z,12.29
2019-03-21T01:28:18.690Z,12.29
2019-03-21T01:29:18.667Z,12.31
2019-03-21T01:30:18.397Z,12.34
2019-03-21T01:31:18.662Z,12.23
2019-03-21T01:32:18.628Z,12.27
2019-03-21T01:33:18.627Z,12.35
2019-03-21T01:34:18.605Z,12.27
2019-03-21T01:35:18.628Z,12.28
2019-03-21T01:36:18.600Z,12.23
2019-03-21T01:37:18.612Z,12.24
2019-03-21T01:38:18.565Z,12.24
2019-03-21T01:39:18.590Z,12.31
2019-03-21T01:40:18.550Z,12.2
2019-03-21T01:41:18.558Z,12.14
2019-03-21T01:42:18.529Z,12.23
2019-03-21T01:43:18.605Z,12.19
2019-03-21T01:44:18.516Z,12.24
2019-03-21T01:45:18.522Z,12.23
2019-03-21T01:46:18.534Z,12.13
2019-03-21T01:47:18.531Z,12.19
2019-03-21T01:48:18.482Z,12.27
2019-03-21T01:49:18.485Z,12.19
2019-03-21T01:50:18.462Z,12.16
2019-03-21T01:51:18.486Z,12.23
2019-03-21T01:52:18.449Z,12.2
2019-03-21T01:53:18.470Z,12.12
2019-03-21T01:54:18.418Z,12.21
2019-03-21T01:55:18.466Z,12.16
2019-03-21T01:56:18.411Z,12.2
2019-03-21T01:57:18.434Z,12.2
2019-03-21T01:58:18.425Z,12.23
2019-03-21T01:59:18.398Z,12.19
2019-03-21T02:00:18.426Z,12.21
2019-03-21T02:01:18.377Z,12.2
2019-03-21T02:02:18.380Z,12.23
2019-03-21T02:03:18.372Z,12.21
2019-03-21T02:04:18.333Z,12.21
2019-03-21T02:05:18.337Z,12.13
2019-03-21T02:06:18.322Z,12.17
2019-03-21T02:07:18.347Z,12.2
2019-03-21T02:08:18.295Z,12.17
2019-03-21T02:09:18.324Z,12.14
2019-03-21T02:10:18.035Z,12.19
2019-03-21T02:11:18.300Z,12.2
2019-03-21T02:12:18.256Z,12.13
2019-03-21T02:13:18.023Z,12.2
2019-03-21T02:14:18.242Z,12.24
2019-03-21T02:15:18.262Z,12.27
2019-03-21T02:16:18.247Z,12.23
2019-03-21T02:17:18.234Z,12.2
2019-03-21T02:18:18.199Z,12.21
2019-03-21T02:19:18.200Z,12.19
2019-03-21T02:20:18.212Z,12.16
2019-03-21T02:21:18.192Z,12.21
2019-03-21T02:22:18.161Z,12.17
2019-03-21T02:23:18.187Z,12.17
2019-03-21T02:24:18.155Z,12.19
2019-03-21T02:25:18.171Z,12.19
2019-03-21T02:26:18.130Z,12.2
2019-03-21T02:27:17.903Z,12.2
2019-03-21T02:28:18.112Z,12.16
2019-03-21T02:29:18.120Z,12.19
2019-03-21T02:30:18.097Z,12.2
2019-03-21T02:31:18.139Z,12.19
2019-03-21T02:32:18.104Z,12.2
2019-03-21T02:33:18.090Z,12.2
2019-03-21T02:34:18.059Z,12.2
2019-03-21T02:35:18.066Z,12.2
2019-03-21T02:36:18.069Z,12.2
2019-03-21T02:37:18.054Z,12.21
2019-03-21T02:38:18.058Z,12.16
2019-03-21T02:39:18.077Z,12.21
2019-03-21T02:40:18.065Z,12.19
2019-03-21T02:41:18.024Z,12.14
2019-03-21T02:42:18.018Z,12.14
2019-03-21T02:43:17.979Z,12.1
2019-03-21T02:44:18.005Z,12.16
2019-03-21T02:45:18.225Z,12.21
2019-03-21T02:46:18.054Z,12.19
2019-03-21T02:47:18.057Z,12.19
2019-03-21T02:48:17.968Z,12.1
2019-03-21T02:49:18.256Z,12.14
2019-03-21T02:50:17.917Z,12.14
2019-03-21T02:51:17.900Z,12.12
2019-03-21T02:52:17.947Z,12.13
2019-03-21T02:53:17.900Z,12.17
2019-03-21T02:54:17.907Z,12.16
2019-03-21T02:55:17.870Z,12.1
2019-03-21T02:56:17.888Z,12.16
2019-03-21T02:57:17.848Z,12.09
2019-03-21T02:58:17.874Z,12.12
2019-03-21T02:59:17.838Z,12.16
2019-03-21T03:00:17.848Z,12.07
2019-03-21T03:01:17.839Z,12.1
2019-03-21T03:02:17.838Z,12.17
2019-03-21T03:03:17.799Z,12.07
2019-03-21T03:04:17.809Z,12.19
2019-03-21T03:05:17.829Z,12.19
2019-03-21T03:06:17.796Z,12.1
2019-03-21T03:07:17.797Z,12.14
2019-03-21T03:08:17.825Z,12.2
2019-03-21T03:09:17.775Z,12.12
2019-03-21T03:10:17.728Z,12.1
2019-03-21T03:11:17.761Z,12.13
2019-03-21T03:12:17.712Z,12.09
2019-03-21T03:13:17.730Z,12.09
2019-03-21T03:14:17.728Z,12.1
2019-03-21T03:15:27.556Z,12.12
2019-03-21T03:16:17.722Z,12.14
2019-03-21T03:17:17.699Z,12.14
2019-03-21T03:18:17.689Z,12.14
2019-03-21T03:19:17.650Z,12.13
2019-03-21T03:20:17.644Z,12.19
2019-03-21T03:21:17.650Z,12.12
2019-03-21T03:22:17.649Z,12.17
2019-03-21T03:23:17.645Z,12.17
2019-03-21T03:24:17.603Z,12.19
2019-03-21T03:25:17.625Z,12.17
2019-03-21T03:26:17.589Z,12.1
2019-03-21T03:27:17.624Z,12.01
2019-03-21T03:28:17.611Z,12.04
2019-03-21T03:29:17.588Z,12.16
2019-03-21T03:30:17.583Z,12.12
2019-03-21T03:31:17.585Z,12.12
2019-03-21T03:32:17.549Z,12.16
2019-03-21T03:33:17.673Z,12.13
2019-03-21T03:34:17.520Z,12.17
2019-03-21T03:35:17.539Z,12.12
2019-03-21T03:36:17.521Z,12.14
2019-03-21T03:37:17.553Z,12.13
2019-03-21T03:38:17.478Z,12.19
2019-03-21T03:39:17.522Z,12.1
2019-03-21T03:40:17.505Z,12.19
2019-03-21T03:41:17.461Z,12.12
2019-03-21T03:42:17.454Z,12.12
2019-03-21T03:43:17.457Z,12.13
2019-03-21T03:44:17.429Z,12.1
2019-03-21T03:45:17.450Z,12.13
2019-03-21T03:46:17.399Z,12.13
2019-03-21T03:47:17.438Z,12.17
2019-03-21T03:48:19.822Z,12.12
2019-03-21T03:49:17.394Z,12.1
2019-03-21T03:50:17.378Z,12.07
2019-03-21T03:51:17.390Z,12.09
2019-03-21T03:52:17.368Z,12.04
2019-03-21T03:53:17.114Z,12.1
2019-03-21T03:54:17.323Z,12.09
2019-03-21T03:55:17.313Z,12.1
2019-03-21T03:56:17.089Z,12.02
2019-03-21T03:57:17.331Z,12.05
2019-03-21T03:58:17.327Z,12.1
2019-03-21T03:59:17.275Z,12.1
2019-03-21T04:00:17.294Z,12.1
2019-03-21T04:01:17.272Z,12.02
2019-03-21T04:02:17.284Z,12.07
2019-03-21T04:03:17.242Z,12.05
2019-03-21T04:04:17.258Z,12.1
2019-03-21T04:05:17.241Z,12.04
2019-03-21T04:06:17.222Z,12.09
2019-03-21T04:07:17.232Z,12.17
2019-03-21T04:08:17.223Z,12.13
2019-03-21T04:09:17.211Z,12.13
2019-03-21T04:10:17.174Z,11.98
2019-03-21T04:11:17.167Z,12.02
2019-03-21T04:12:17.193Z,12.07
2019-03-21T04:13:17.174Z,11.96
2019-03-21T04:14:17.179Z,11.96
2019-03-21T04:15:17.168Z,11.98
2019-03-21T04:16:17.156Z,11.98
2019-03-21T04:17:17.113Z,11.9
2019-03-21T04:18:17.131Z,11.94
2019-03-21T04:19:17.090Z,12.05
2019-03-21T04:20:17.116Z,11.95
2019-03-21T04:21:17.093Z,11.99
2019-03-21T04:22:17.099Z,12.04
2019-03-21T04:23:17.055Z,11.98
2019-03-21T04:24:17.059Z,12.01
2019-03-21T04:25:17.058Z,11.99
2019-03-21T04:26:17.065Z,11.98
2019-03-21T04:27:17.050Z,12.01
2019-03-21T04:28:17.012Z,11.98
2019-03-21T04:29:17.013Z,11.99
2019-03-21T04:30:17.032Z,11.91
2019-03-21T04:31:16.990Z,12.04
2019-03-21T04:32:16.999Z,12.01
2019-03-21T04:33:16.962Z,11.95
2019-03-21T04:34:17.005Z,11.95
2019-03-21T04:35:16.942Z,11.95
2019-03-21T04:36:16.976Z,11.88
2019-03-21T04:37:16.951Z,11.91
2019-03-21T04:38:16.760Z,11.99
2019-03-21T04:39:16.906Z,11.96
2019-03-21T04:40:16.908Z,11.99
2019-03-21T04:41:16.915Z,11.95
2019-03-21T04:42:16.915Z,11.96
2019-03-21T04:43:16.896Z,11.95
2019-03-21T04:44:16.869Z,11.9
2019-03-21T04:45:16.865Z,11.91
2019-03-21T04:46:16.840Z,11.99
2019-03-21T04:47:16.859Z,11.99
2019-03-21T04:48:16.821Z,12.01
2019-03-21T04:49:16.839Z,11.91
2019-03-21T04:50:16.615Z,11.99
2019-03-21T04:51:16.824Z,11.94
2019-03-21T04:52:16.787Z,12.04
2019-03-21T04:53:16.789Z,11.99
2019-03-21T04:54:16.765Z,11.95
2019-03-21T04:55:16.791Z,11.94
2019-03-21T04:56:16.759Z,11.95
2019-03-21T04:57:16.759Z,12.01
2019-03-21T04:58:16.762Z,12.01
2019-03-21T04:59:16.758Z,11.99
2019-03-21T05:00:16.713Z,12.04
2019-03-21T05:01:16.732Z,12.02
2019-03-21T05:02:16.755Z,12.01
2019-03-21T05:03:16.733Z,12.04
2019-03-21T05:04:16.681Z,12.02
2019-03-21T05:05:16.694Z,12.13
2019-03-21T05:06:16.653Z,12.12
2019-03-21T05:07:16.755Z,12.01
2019-03-21T05:08:16.639Z,12.1
2019-03-21T05:09:16.641Z,12.01
2019-03-21T05:10:16.646Z,12.01
2019-03-21T05:11:16.603Z,12.1
2019-03-21T05:12:16.598Z,12.01
2019-03-21T05:13:16.601Z,11.99
2019-03-21T05:14:16.648Z,12.05
2019-03-21T05:15:16.626Z,12.21
2019-03-21T05:16:19.692Z,12.07
2019-03-21T05:17:16.563Z,12.13
2019-03-21T05:18:16.539Z,12.14
2019-03-21T05:19:16.564Z,12.17
2019-03-21T05:20:19.068Z,12.19
2019-03-21T05:21:16.280Z,12.17
2019-03-21T05:22:16.534Z,12.07
2019-03-21T05:23:16.501Z,12.1
2019-03-21T05:24:16.513Z,12.14
2019-03-21T05:25:16.498Z,12.1
2019-03-21T05:26:16.501Z,12.1
2019-03-21T05:27:16.461Z,12.17
2019-03-21T05:28:16.455Z,12.1
2019-03-21T05:29:16.450Z,12.14
2019-03-21T05:30:16.460Z,12.2
2019-03-21T05:31:16.453Z,12.16
2019-03-21T05:32:16.415Z,12.2
2019-03-21T05:33:16.414Z,12.21
2019-03-21T05:34:16.397Z,12.2
2019-03-21T05:35:16.471Z,12.23
2019-03-21T05:36:16.377Z,12.2
2019-03-21T05:37:16.397Z,12.2
2019-03-21T05:38:16.360Z,12.17
2019-03-21T05:39:16.377Z,12.2
2019-03-21T05:40:16.340Z,12.14
2019-03-21T05:41:16.352Z,12.21
2019-03-21T05:42:16.317Z,12.16
2019-03-21T05:43:16.346Z,12.17
2019-03-21T05:44:16.325Z,12.28
2019-03-21T05:45:16.309Z,12.27
2019-03-21T05:46:25.932Z,12.29
2019-03-21T05:47:16.303Z,12.2
2019-03-21T05:48:16.269Z,12.28
2019-03-21T05:49:16.271Z,12.27
2019-03-21T05:50:17.486Z,12.27
2019-03-21T05:51:16.268Z,12.34
2019-03-21T05:52:16.229Z,12.29
2019-03-21T05:53:16.245Z,12.28
2019-03-21T05:54:16.210Z,12.34
2019-03-21T05:55:16.234Z,12.28
2019-03-21T05:56:16.190Z,12.31
2019-03-21T05:57:16.242Z,12.27
2019-03-21T05:58:16.172Z,12.28
2019-03-21T05:59:16.195Z,12.29
2019-03-21T06:00:16.180Z,12.37
2019-03-21T06:01:16.164Z,12.29
2019-03-21T06:02:16.146Z,12.37
2019-03-21T06:03:16.124Z,12.24
2019-03-21T06:04:16.147Z,12.29
2019-03-21T06:05:16.125Z,12.28
2019-03-21T06:06:17.007Z,12.37
2019-03-21T06:07:16.091Z,12.31
2019-03-21T06:08:16.106Z,12.32
2019-03-21T06:09:16.092Z,12.34
2019-03-21T06:10:16.095Z,12.46
2019-03-21T06:11:16.057Z,12.49
2019-03-21T06:12:16.071Z,12.41
2019-03-21T06:13:16.056Z,12.49
2019-03-21T06:14:16.028Z,12.41
2019-03-21T06:15:16.046Z,12.45
2019-03-21T06:16:16.058Z,12.52
2019-03-21T06:17:16.020Z,12.54
2019-03-21T06:18:15.993Z,12.52
2019-03-21T06:19:15.984Z,12.57
2019-03-21T06:20:16.000Z,12.52
2019-03-21T06:21:15.982Z,12.54
2019-03-21T06:22:15.984Z,12.65
2019-03-21T06:23:15.942Z,12.68
2019-03-21T06:24:15.963Z,12.57
2019-03-21T06:25:18.425Z,12.62
2019-03-21T06:26:15.955Z,12.74
2019-03-21T06:27:19.598Z,12.7
2019-03-21T06:28:15.934Z,12.72
2019-03-21T06:29:15.910Z,12.75
2019-03-21T06:30:15.913Z,12.75
2019-03-21T06:31:15.874Z,12.77
2019-03-21T06:32:17.893Z,12.92
2019-03-21T06:33:15.871Z,12.79
2019-03-21T06:34:15.878Z,12.77
2019-03-21T06:35:15.881Z,12.77
2019-03-21T06:36:15.839Z,12.92
2019-03-21T06:37:15.836Z,12.9
2019-03-21T06:38:15.844Z,12.86
2019-03-21T06:39:15.810Z,12.82
2019-03-21T06:40:15.829Z,12.85
2019-03-21T06:41:15.787Z,12.85
2019-03-21T06:42:15.807Z,12.79
2019-03-21T06:43:15.770Z,12.9
2019-03-21T06:44:15.791Z,12.86
2019-03-21T06:45:15.766Z,12.95
2019-03-21T06:46:15.774Z,12.92
2019-03-21T06:47:15.740Z,12.96
2019-03-21T06:48:15.738Z,12.9
2019-03-21T06:49:15.737Z,12.87
2019-03-21T06:50:15.786Z,12.95
2019-03-21T06:51:15.706Z,13.01
2019-03-21T06:52:15.717Z,12.93
2019-03-21T06:53:15.704Z,13.03
2019-03-21T06:54:15.706Z,13.01
2019-03-21T06:55:15.672Z,13.08
2019-03-21T06:56:15.688Z,13
2019-03-21T06:57:15.647Z,13.11
2019-03-21T06:58:15.677Z,13.11
2019-03-21T06:59:15.646Z,13.15
2019-03-21T07:00:15.654Z,13.22
2019-03-21T07:01:15.625Z,13.17
2019-03-21T07:02:15.642Z,13.28
2019-03-21T07:03:16.465Z,13.28
2019-03-21T07:04:15.618Z,13.26
2019-03-21T07:05:15.606Z,13.22
2019-03-21T07:06:15.571Z,13.22
2019-03-21T07:07:15.565Z,13.25
2019-03-21T07:08:15.590Z,13.23
2019-03-21T07:09:15.575Z,13.22
2019-03-21T07:10:15.569Z,13.26
2019-03-21T07:11:15.531Z,13.29
2019-03-21T07:12:15.552Z,13.2
2019-03-21T07:13:15.513Z,13.22
2019-03-21T07:14:15.540Z,13.2
2019-03-21T07:15:15.502Z,13.3
2019-03-21T07:16:15.526Z,13.3
2019-03-21T07:17:15.513Z,13.39
2019-03-21T07:18:15.504Z,13.44
2019-03-21T07:19:15.462Z,13.39
2019-03-21T07:20:15.467Z,13.44
2019-03-21T07:21:15.459Z,13.52
2019-03-21T07:22:17.301Z,13.52
2019-03-21T07:23:15.461Z,13.54
2019-03-21T07:24:15.184Z,13.49
2019-03-21T07:25:15.428Z,13.52
2019-03-21T07:26:15.437Z,13.51
2019-03-21T07:27:15.439Z,13.49
2019-03-21T07:28:15.393Z,13.55
2019-03-21T07:29:15.393Z,13.52
2019-03-21T07:30:15.406Z,13.54
2019-03-21T07:31:16.286Z,13.6
2019-03-21T07:32:15.388Z,13.66
2019-03-21T07:33:15.362Z,13.75
2019-03-21T07:34:15.374Z,13.78
2019-03-21T07:35:15.332Z,13.88
2019-03-21T07:36:15.335Z,13.85
2019-03-21T07:37:15.335Z,14
2019-03-21T07:38:15.341Z,14.1
2019-03-21T07:39:15.343Z,14.17
2019-03-21T07:40:15.298Z,14.15
2019-03-21T07:41:15.314Z,14.2
2019-03-21T07:42:15.282Z,14.24
2019-03-21T07:43:15.310Z,14.22
2019-03-21T07:44:15.267Z,14.21
2019-03-21T07:45:15.287Z,14.22
2019-03-21T07:46:15.248Z,14.27
2019-03-21T07:47:17.919Z,14.25
2019-03-21T07:48:15.232Z,14.32
2019-03-21T07:49:15.244Z,14.24
2019-03-21T07:50:15.221Z,14.27
2019-03-21T07:51:15.243Z,14.28
2019-03-21T07:52:14.987Z,14.2
2019-03-21T07:53:15.217Z,14.36
2019-03-21T07:54:15.193Z,14.33
2019-03-21T07:55:15.213Z,14.37
2019-03-21T07:56:15.174Z,14.43
2019-03-21T07:57:15.178Z,14.43
2019-03-21T07:58:15.159Z,14.45
2019-03-21T07:59:15.193Z,14.46
2019-03-21T08:00:15.146Z,14.46
2019-03-21T08:01:15.166Z,14.5
2019-03-21T08:02:15.134Z,14.43
2019-03-21T08:03:15.152Z,14.51
2019-03-21T08:04:15.113Z,14.51
2019-03-21T08:05:15.128Z,14.37
2019-03-21T08:06:14.859Z,14.46
2019-03-21T08:07:14.873Z,14.4
2019-03-21T08:08:15.106Z,14.4
2019-03-21T08:09:15.091Z,14.51
2019-03-21T08:10:14.829Z,14.46
2019-03-21T08:11:15.062Z,14.37
2019-03-21T08:12:15.080Z,14.46
2019-03-21T08:13:15.062Z,14.51
2019-03-21T08:14:14.835Z,14.58
2019-03-21T08:15:15.027Z,14.47
2019-03-21T08:16:15.055Z,14.51
2019-03-21T08:17:15.019Z,14.37
2019-03-21T08:18:15.039Z,14.55
2019-03-21T08:19:15.014Z,14.57
2019-03-21T08:20:15.030Z,14.51
2019-03-21T08:21:15.003Z,14.69
2019-03-21T08:22:15.039Z,14.64
2019-03-21T08:23:15.003Z,14.77
2019-03-21T08:24:14.992Z,14.84
2019-03-21T08:25:14.977Z,14.81
2019-03-21T08:26:14.953Z,14.88
2019-03-21T08:27:14.947Z,14.83
2019-03-21T08:28:14.961Z,14.99
2019-03-21T08:29:14.949Z,14.99
2019-03-21T08:30:14.951Z,15.09
2019-03-21T08:31:14.917Z,15.02
2019-03-21T08:32:14.934Z,15.19
2019-03-21T08:33:14.920Z,15.28
2019-03-21T08:34:14.900Z,15.23
2019-03-21T08:35:14.936Z,15.29
2019-03-21T08:36:14.879Z,15.23
2019-03-21T08:37:14.890Z,15.27
2019-03-21T08:38:14.864Z,15.2
2019-03-21T08:39:14.892Z,15.23
2019-03-21T08:40:14.879Z,15.19
2019-03-21T08:41:14.863Z,15.2
2019-03-21T08:42:14.841Z,15.31
2019-03-21T08:43:14.835Z,15.23
2019-03-21T08:44:14.851Z,15.35
2019-03-21T08:45:14.834Z,15.34
2019-03-21T08:46:14.812Z,15.36
2019-03-21T08:47:14.843Z,15.38
2019-03-21T08:48:14.802Z,15.35
2019-03-21T08:49:14.821Z,15.34
2019-03-21T08:50:14.788Z,15.34
2019-03-21T08:51:14.816Z,15.32
2019-03-21T08:52:14.775Z,15.32
2019-03-21T08:53:14.788Z,15.29
2019-03-21T08:54:14.761Z,15.28
2019-03-21T08:55:14.835Z,15.36
2019-03-21T08:56:14.777Z,15.44
2019-03-21T08:57:14.758Z,15.39
2019-03-21T08:58:14.734Z,15.44
2019-03-21T08:59:14.728Z,15.41
2019-03-21T09:00:14.744Z,15.53
2019-03-21T09:01:14.730Z,15.57
2019-03-21T09:02:14.736Z,15.49
2019-03-21T09:03:14.695Z,15.59
2019-03-21T09:04:14.720Z,15.59
2019-03-21T09:05:14.686Z,15.64
2019-03-21T09:06:14.713Z,15.75
2019-03-21T09:07:14.672Z,15.76
2019-03-21T09:08:14.702Z,15.86
2019-03-21T09:09:14.677Z,15.84
2019-03-21T09:10:14.692Z,15.8
2019-03-21T09:11:14.667Z,15.82
2019-03-21T09:12:14.671Z,15.82
2019-03-21T09:13:14.652Z,15.9
2019-03-21T09:14:14.631Z,15.86
2019-03-21T09:15:14.381Z,15.94
2019-03-21T09:16:15.792Z,15.97
2019-03-21T09:17:14.629Z,15.93
2019-03-21T09:18:14.639Z,15.94
2019-03-21T09:19:14.354Z,16
2019-03-21T09:20:14.617Z,16
2019-03-21T09:21:24.476Z,16.01
2019-03-21T09:22:15.986Z,15.97
2019-03-21T09:23:14.581Z,16
2019-03-21T09:24:14.600Z,15.97
2019-03-21T09:25:14.575Z,16
2019-03-21T09:26:14.585Z,16.04
2019-03-21T09:27:14.554Z,16.05
2019-03-21T09:28:16.657Z,16.04
2019-03-21T09:29:14.550Z,16.07
2019-03-21T09:30:14.561Z,16.12
2019-03-21T09:31:14.559Z,16.14
2019-03-21T09:32:14.661Z,16.17
2019-03-21T09:33:14.528Z,16.28
2019-03-21T09:34:14.509Z,16.3
2019-03-21T09:35:17.295Z,16.21
2019-03-21T09:36:14.501Z,16.25
2019-03-21T09:37:14.501Z,16.24
2019-03-21T09:38:14.524Z,16.28
2019-03-21T09:39:14.251Z,16.34
2019-03-21T09:40:14.501Z,16.43
2019-03-21T09:41:14.484Z,16.48
2019-03-21T09:42:14.490Z,16.48
2019-03-21T09:43:14.454Z,16.6
2019-03-21T09:44:14.449Z,16.56
2019-03-21T09:45:14.212Z,16.64
2019-03-21T09:46:14.469Z,16.68
2019-03-21T09:47:14.461Z,16.68
2019-03-21T09:48:14.432Z,16.73
2019-03-21T09:49:14.437Z,16.7
2019-03-21T09:50:14.414Z,16.83
2019-03-21T09:51:14.447Z,16.82
2019-03-21T09:52:14.405Z,16.93
2019-03-21T09:53:14.427Z,16.96
2019-03-21T09:54:14.838Z,17.12
2019-03-21T09:55:14.416Z,17.08
2019-03-21T09:56:14.138Z,17.04
2019-03-21T09:57:14.398Z,17.03
2019-03-21T09:58:14.366Z,17
2019-03-21T09:59:14.406Z,17.14
2019-03-21T10:00:14.385Z,16.97
2019-03-21T10:01:14.371Z,16.94
2019-03-21T10:02:14.348Z,16.96
2019-03-21T10:03:14.383Z,16.97
2019-03-21T10:04:14.340Z,16.88
2019-03-21T10:05:14.342Z,16.86
2019-03-21T10:06:14.627Z,16.81
2019-03-21T10:07:14.351Z,16.78
2019-03-21T10:08:14.317Z,16.73
2019-03-21T10:09:14.339Z,16.7
2019-03-21T10:10:14.311Z,16.68
2019-03-21T10:11:14.336Z,16.53
2019-03-21T10:12:14.293Z,16.57
2019-03-21T10:13:14.302Z,16.49
2019-03-21T10:14:14.279Z,16.52
2019-03-21T10:15:14.306Z,16.48
2019-03-21T10:16:14.271Z,16.49
2019-03-21T10:17:14.274Z,16.49
2019-03-21T10:18:14.292Z,16.49
2019-03-21T10:19:14.283Z,16.63
2019-03-21T10:20:14.248Z,16.58
2019-03-21T10:21:14.255Z,16.7
2019-03-21T10:22:14.263Z,16.68
2019-03-21T10:23:14.258Z,16.7
2019-03-21T10:24:14.232Z,16.68
2019-03-21T10:25:14.247Z,16.71
2019-03-21T10:26:14.217Z,16.7
2019-03-21T10:27:14.233Z,16.79
2019-03-21T10:28:14.202Z,16.7
2019-03-21T10:29:14.210Z,16.71
2019-03-21T10:30:14.220Z,16.78
2019-03-21T10:31:14.185Z,16.73
2019-03-21T10:32:19.172Z,16.66
2019-03-21T10:33:14.231Z,16.66
2019-03-21T10:34:13.949Z,16.67
2019-03-21T10:35:14.194Z,16.61
2019-03-21T10:36:16.049Z,16.64
2019-03-21T10:37:14.164Z,16.71
2019-03-21T10:38:14.147Z,16.68
2019-03-21T10:39:14.171Z,16.7
2019-03-21T10:40:14.141Z,16.66
2019-03-21T10:41:14.159Z,16.58
2019-03-21T10:42:14.125Z,16.58
2019-03-21T10:43:15.419Z,16.6
2019-03-21T10:44:14.112Z,16.63
2019-03-21T10:45:14.130Z,16.53
2019-03-21T10:46:14.100Z,16.5
2019-03-21T10:47:14.123Z,16.43
2019-03-21T10:48:14.112Z,16.38
2019-03-21T10:49:14.101Z,16.34
2019-03-21T10:50:14.090Z,16.33
2019-03-21T10:51:14.069Z,16.25
2019-03-21T10:52:14.090Z,16.25
2019-03-21T10:53:14.077Z,16.25
2019-03-21T10:54:14.050Z,16.21
2019-03-21T10:55:14.074Z,16.21
2019-03-21T10:56:14.043Z,16.3
2019-03-21T10:57:14.066Z,16.34
2019-03-21T10:58:14.026Z,16.24
2019-03-21T10:59:14.050Z,16.34
2019-03-21T11:00:14.013Z,16.27
2019-03-21T11:01:14.066Z,16.27
2019-03-21T11:02:14.007Z,16.34
2019-03-21T11:03:14.035Z,16.38
2019-03-21T11:04:13.851Z,16.42
2019-03-21T11:05:14.001Z,16.43
2019-03-21T11:06:13.742Z,16.42
2019-03-21T11:07:13.972Z,16.46
2019-03-21T11:08:13.997Z,16.48
2019-03-21T11:09:13.976Z,16.56
2019-03-21T11:10:13.991Z,16.53
2019-03-21T11:11:13.947Z,16.53
2019-03-21T11:12:13.971Z,16.6
2019-03-21T11:13:13.699Z,16.52
2019-03-21T11:14:13.965Z,16.53
2019-03-21T11:15:13.926Z,16.53
2019-03-21T11:16:13.955Z,16.66
2019-03-21T11:17:13.939Z,16.73
2019-03-21T11:18:13.942Z,16.76
2019-03-21T11:19:13.972Z,16.75
2019-03-21T11:20:13.921Z,16.82
2019-03-21T11:21:13.919Z,16.85
2019-03-21T11:22:13.883Z,16.81
2019-03-21T11:23:13.885Z,16.82
2019-03-21T11:24:13.901Z,16.83
2019-03-21T11:25:13.888Z,16.96
2019-03-21T11:26:13.890Z,16.91
2019-03-21T11:27:13.860Z,16.91
2019-03-21T11:28:13.897Z,16.97
2019-03-21T11:29:13.866Z,17
2019-03-21T11:30:20.845Z,17
2019-03-21T11:31:13.834Z,16.94
2019-03-21T11:32:13.874Z,16.98
2019-03-21T11:33:13.837Z,16.96
2019-03-21T11:34:13.849Z,17
2019-03-21T11:35:13.812Z,17.01
2019-03-21T11:36:13.815Z,16.98
2019-03-21T11:37:13.815Z,17.04
2019-03-21T11:38:13.832Z,17.11
2019-03-21T11:39:13.823Z,17.12
2019-03-21T11:40:13.798Z,17.07
2019-03-21T11:41:13.818Z,17.08
2019-03-21T11:42:13.824Z,17.11
2019-03-21T11:43:13.842Z,17.14
2019-03-21T11:44:13.791Z,17.11
2019-03-21T11:45:15.048Z,17.07
2019-03-21T11:46:13.788Z,17.06
2019-03-21T11:47:13.747Z,17.12
2019-03-21T11:48:13.786Z,17.12
2019-03-21T11:49:13.797Z,17.06
2019-03-21T11:50:13.762Z,17.06
2019-03-21T11:51:13.726Z,16.98
2019-03-21T11:52:22.943Z,16.96
2019-03-21T11:53:13.735Z,16.97
2019-03-21T11:54:13.743Z,16.98
2019-03-21T11:55:13.754Z,17.04
2019-03-21T11:56:15.623Z,17
2019-03-21T11:57:13.709Z,17.04
2019-03-21T11:58:13.717Z,16.94
2019-03-21T11:59:13.680Z,16.96
2019-03-21T12:00:13.705Z,16.89
2019-03-21T12:01:13.672Z,16.91
2019-03-21T12:02:13.717Z,16.93
2019-03-21T12:03:13.667Z,16.89
2019-03-21T12:04:13.689Z,16.85
2019-03-21T12:05:13.668Z,16.81
2019-03-21T12:06:13.680Z,16.79
2019-03-21T12:07:13.637Z,16.79
2019-03-21T12:08:13.645Z,16.79
2019-03-21T12:09:13.644Z,16.86
2019-03-21T12:10:13.651Z,16.79
2019-03-21T12:11:13.620Z,16.76
2019-03-21T12:12:13.651Z,16.73
2019-03-21T12:13:13.674Z,16.71
2019-03-21T12:14:13.632Z,16.7
2019-03-21T12:15:13.598Z,16.73
2019-03-21T12:16:13.623Z,16.66
2019-03-21T12:17:15.279Z,16.73
2019-03-21T12:18:13.615Z,16.75
2019-03-21T12:19:13.573Z,16.71
2019-03-21T12:20:13.601Z,16.73
2019-03-21T12:21:13.574Z,16.73
2019-03-21T12:22:13.610Z,16.71
2019-03-21T12:23:13.557Z,16.78
2019-03-21T12:24:13.617Z,16.75
2019-03-21T12:25:13.553Z,16.73
2019-03-21T12:26:13.581Z,16.81
2019-03-21T12:27:13.560Z,16.75
2019-03-21T12:28:13.529Z,16.75
2019-03-21T12:29:13.529Z,16.67
2019-03-21T12:30:13.514Z,16.67
2019-03-21T12:31:13.536Z,16.58
2019-03-21T12:32:13.504Z,16.63
2019-03-21T12:33:13.537Z,16.75
2019-03-21T12:34:13.489Z,16.73
2019-03-21T12:35:13.521Z,16.68
2019-03-21T12:36:13.488Z,16.68
2019-03-21T12:37:13.483Z,16.73
2019-03-21T12:38:13.507Z,16.71
2019-03-21T12:39:13.508Z,16.66
2019-03-21T12:40:13.461Z,16.63
2019-03-21T12:41:13.463Z,16.58
2019-03-21T12:42:13.475Z,16.57
2019-03-21T12:43:13.496Z,16.49
2019-03-21T12:44:13.435Z,16.64
2019-03-21T12:45:13.443Z,16.7
2019-03-21T12:46:13.422Z,16.73
2019-03-21T12:47:13.198Z,16.73
2019-03-21T12:48:13.418Z,16.79
2019-03-21T12:49:13.436Z,16.94
2019-03-21T12:50:13.157Z,16.96
2019-03-21T12:51:13.914Z,16.97
2019-03-21T12:52:13.404Z,17.03
2019-03-21T12:53:13.403Z,17.01
2019-03-21T12:54:13.378Z,17.01
2019-03-21T12:55:13.410Z,16.98
2019-03-21T12:56:13.398Z,17